x

Scilly St Marys (03803) Weather Station

1:00 - Thu 30th Mar 2017 All times are BST. 1 hours from GMT.

  • Wind
    29mph, 34mph gusts
  • Aire Temp 53°f
  • Sea Pressure 1016mb
  • Scilly St Marys
  • Scilly St Marys

More Historic Weather Station data

Upgrade to MSW Pro to gain access to the past 30 days of data for over 8000 Wavebouys and Weather Stations around the globe.

Join Pro

Comparision Forecast

View Surf forecast
   
jue 03/30 1:00 29 34 mph 1016mb 53f
12:00 29 36 mph 1017mb 53f
mié 03/29 11:00 28 33 mph 1017mb 53f
10:00 29 37 mph 1017mb 53f
9:00 31 36 mph 1016mb 53f
8:00 30 37 mph 1016mb 53f
7:00 31 40 mph 1015mb 53f
6:00 33 39 mph 1015mb 53f
5:00 32 40 mph 1016mb 53f
4:00 31 40 mph 1016mb 53f
3:00 31 36 mph 1016mb 53f
2:00 30 38 mph 1017mb 53f
1:00 30 36 mph 1017mb 53f
12:00 30 36 mph 1017mb 53f
11:00 29 37 mph 1017mb 53f
10:00 29 36 mph 1017mb 53f
9:00 28 33 mph 1017mb 53f
8:00 29 36 mph 1016mb 53f
7:00 29 36 mph 1016mb 53f
6:00 30 36 mph 1016mb 53f
5:00 30 36 mph 1016mb 53f
4:00 29 34 mph 1017mb 53f
3:00 29 33 mph 1017mb 52f
2:00 28 33 mph 1017mb 52f
1:00 28 33 mph 1018mb 52f
12:00 28 32 mph 1018mb 52f
mar 03/28 11:00 26 31 mph 1017mb 52f
10:00 23 32 mph 1017mb 52f
9:00 25 38 mph 1016mb 52f
8:00 33 41 mph 1016mb 52f
7:00 34 40 mph 1015mb 52f
6:00 29 39 mph 1016mb 52f
5:00 22 30 mph 1016mb 51f
4:00 25 31 mph 1017mb 51f
3:00 28 34 mph 1017mb 52f
2:00 24 31 mph 1017mb 53f
1:00 24 30 mph 1017mb 53f
12:00 22
mph
1017mb 53f
11:00 22
mph
1017mb 53f
10:00 23
mph
1016mb 52f
9:00 23 31 mph 1016mb 51f
8:00 25 32 mph 1015mb 51f
7:00 21 29 mph 1015mb 51f
6:00 25 30 mph 1014mb 51f
5:00 19
mph
1014mb 51f
4:00 19
mph
1015mb 51f
3:00 18
mph
1015mb 51f
2:00 17
mph
1015mb 51f
1:00 14
mph
1015mb 51f
12:00 15
mph
1015mb 51f
lun 03/27 11:00 15
mph
1015mb 51f
10:00 16
mph
1016mb 51f
9:00 22 29 mph 1015mb 51f
8:00 23 33 mph 1015mb 51f
7:00 28 34 mph 1015mb 51f
6:00 28 34 mph 1015mb 51f
5:00 29 36 mph 1015mb 52f
4:00 28 33 mph 1016mb 53f
3:00 25 31 mph 1016mb 53f
2:00 21 29 mph 1017mb 54f
1:00 24 32 mph 1017mb 53f
12:00 25 34 mph 1017mb 52f
11:00 26 33 mph 1017mb 52f
10:00 24 32 mph 1017mb 52f
9:00 26 32 mph 1017mb 51f
8:00 26 32 mph 1017mb 50f
7:00 23 31 mph 1017mb 49f
6:00 24 30 mph 1017mb 50f
5:00 21
mph
1017mb 50f
4:00 22
mph
1018mb 50f
3:00 18
mph
1018mb 50f
2:00 19
mph
1018mb 50f
1:00 18
mph
1018mb 50f
12:00 22
mph
1018mb 50f
dom 03/26 11:00 21 29 mph 1018mb 50f
10:00 22
mph
1018mb 50f
9:00 21 31 mph 1018mb 50f
8:00 25 36 mph 1018mb 50f
7:00 29 38 mph 1017mb 50f
6:00 31 40 mph 1017mb 50f
5:00 29 38 mph 1017mb 51f
4:00 31 39 mph 1017mb 52f
3:00 25 37 mph 1018mb 52f
2:00 31 40 mph 1018mb 52f
1:00 29 43 mph 1018mb 51f
12:00 32 40 mph 1018mb 51f
11:00 29 36 mph 1018mb 50f
10:00 22 33 mph 1018mb 50f
9:00 23 33 mph 1018mb 49f
8:00 25 34 mph 1018mb 48f
7:00 26 37 mph 1018mb 48f
6:00 26 37 mph 1018mb 49f
5:00 26 36 mph 1018mb 49f
4:00 24 34 mph 1019mb 50f
3:00 25 37 mph 1019mb 50f
2:00 25 36 mph 1020mb 51f